createdAt,value
2019-05-12T00:01:54.606Z,112.71
2019-05-12T00:05:00.084Z,112.74
2019-05-12T00:08:08.176Z,112.87
2019-05-12T00:11:12.241Z,113.50
2019-05-12T00:14:18.410Z,113.85
2019-05-12T00:17:23.594Z,113.95
2019-05-12T00:20:28.789Z,114.04
2019-05-12T00:23:38.204Z,113.95
2019-05-12T00:26:43.646Z,114.43
2019-05-12T00:29:48.998Z,114.37
2019-05-12T00:32:54.303Z,114.40
2019-05-12T00:35:59.461Z,114.33
2019-05-12T00:39:08.678Z,114.11
2019-05-12T00:42:14.376Z,113.59
2019-05-12T00:45:19.580Z,112.93
2019-05-12T00:48:24.715Z,113.32
2019-05-12T00:51:29.861Z,112.79
2019-05-12T00:54:35.030Z,113.12
2019-05-12T00:57:40.149Z,113.37
2019-05-12T01:00:45.389Z,112.56
2019-05-12T01:03:50.828Z,112.76
2019-05-12T01:06:58.209Z,112.42
2019-05-12T01:10:04.755Z,112.87
2019-05-12T01:13:10.323Z,113.01
2019-05-12T01:16:15.866Z,112.91
2019-05-12T01:19:21.163Z,112.39
2019-05-12T01:22:27.740Z,111.98
2019-05-12T01:25:33.071Z,111.78
2019-05-12T01:28:38.360Z,111.77
2019-05-12T01:31:55.799Z,111.66
2019-05-12T01:35:00.981Z,112.62
2019-05-12T01:38:07.984Z,112.73
2019-05-12T01:41:13.724Z,112.54
2019-05-12T01:44:19.195Z,113.14
2019-05-12T01:47:24.455Z,113.35
2019-05-12T01:50:29.796Z,113.01
2019-05-12T01:53:37.875Z,112.24
2019-05-12T01:56:42.908Z,111.88
2019-05-12T01:59:48.455Z,112.27
2019-05-12T02:02:53.651Z,113.57
2019-05-12T02:06:01.634Z,113.75
2019-05-12T02:09:10.210Z,113.82
2019-05-12T02:12:15.388Z,114.27
2019-05-12T02:15:21.247Z,114.52
2019-05-12T02:18:28.161Z,114.44
2019-05-12T02:21:33.361Z,114.39
2019-05-12T02:24:39.064Z,115.34
2019-05-12T02:27:44.395Z,114.88
2019-05-12T02:30:50.633Z,114.66
2019-05-12T02:33:55.795Z,114.79
2019-05-12T02:37:00.975Z,115.18
2019-05-12T02:40:07.830Z,115.10
2019-05-12T02:43:15.412Z,115.11
2019-05-12T02:46:19.814Z,115.11
2019-05-12T02:49:24.984Z,115.07
2019-05-12T02:52:30.220Z,114.88
2019-05-12T02:55:35.931Z,115.01
2019-05-12T02:58:45.171Z,115.60
2019-05-12T03:01:49.961Z,115.67
2019-05-12T03:04:55.957Z,115.87
2019-05-12T03:08:04.898Z,115.72
2019-05-12T03:11:09.249Z,115.72
2019-05-12T03:14:15.661Z,115.15
2019-05-12T03:17:24.904Z,114.99
2019-05-12T03:20:28.039Z,114.92
2019-05-12T03:23:35.462Z,115.18
2019-05-12T03:26:40.716Z,114.69
2019-05-12T03:29:45.865Z,114.24
2019-05-12T03:32:51.072Z,114.14
2019-05-12T03:36:00.680Z,113.79
2019-05-12T03:39:04.391Z,113.55
2019-05-12T03:42:09.531Z,113.39
2019-05-12T03:45:15.837Z,112.74
2019-05-12T03:48:21.000Z,111.99
2019-05-12T03:51:26.132Z,111.59
2019-05-12T03:54:31.284Z,111.07
2019-05-12T03:57:38.060Z,110.18
2019-05-12T04:00:44.739Z,110.50
2019-05-12T04:03:50.048Z,110.35
2019-05-12T04:06:55.327Z,110.26
2019-05-12T04:10:04.842Z,109.54
2019-05-12T04:13:08.475Z,108.73
2019-05-12T04:16:16.342Z,108.46
2019-05-12T04:19:20.479Z,107.65
2019-05-12T04:22:25.670Z,106.69
2019-05-12T04:25:46.525Z,106.07
2019-05-12T04:28:37.621Z,104.95
2019-05-12T04:31:44.223Z,104.76
2019-05-12T04:34:49.599Z,103.52
2019-05-12T04:37:55.525Z,101.43
2019-05-12T04:41:01.876Z,101.76
2019-05-12T04:44:07.034Z,100.61
2019-05-12T04:47:14.544Z,100.10
2019-05-12T04:50:20.091Z,99.99
2019-05-12T04:53:25.568Z,99.75
2019-05-12T04:56:35.855Z,99.55
2019-05-12T04:59:40.033Z,97.43
2019-05-12T05:02:45.753Z,95.41
2019-05-12T05:05:51.215Z,95.46
2019-05-12T05:08:56.411Z,94.26
2019-05-12T05:12:04.421Z,92.00
2019-05-12T05:15:08.929Z,90.72
2019-05-12T05:18:14.056Z,88.49
2019-05-12T05:21:19.230Z,88.32
2019-05-12T05:24:24.479Z,89.61
2019-05-12T05:27:29.645Z,87.81
2019-05-12T05:30:34.828Z,88.19
2019-05-12T05:33:39.994Z,87.01
2019-05-12T05:36:45.104Z,86.64
2019-05-12T05:39:51.322Z,83.86
2019-05-12T05:42:57.754Z,82.70
2019-05-12T05:46:07.713Z,80.22
2019-05-12T05:49:09.695Z,79.10
2019-05-12T05:52:15.165Z,78.26
2019-05-12T05:55:20.576Z,79.83
2019-05-12T05:58:26.341Z,76.61
2019-05-12T06:01:31.519Z,73.52
2019-05-12T06:04:39.030Z,71.95
2019-05-12T06:07:44.305Z,64.38
2019-05-12T06:10:49.666Z,55.41
2019-05-12T06:13:54.766Z,56.76
2019-05-12T06:16:59.995Z,50.71
2019-05-12T06:20:05.372Z,53.57
2019-05-12T06:23:10.609Z,53.15
2019-05-12T06:26:21.283Z,57.17
2019-05-12T06:29:24.923Z,60.58
2019-05-12T06:32:29.526Z,67.29
2019-05-12T06:35:40.635Z,63.84
2019-05-12T06:38:43.465Z,64.06
2019-05-12T06:41:48.802Z,60.50
2019-05-12T06:44:57.027Z,63.04
2019-05-12T06:48:03.237Z,64.74
2019-05-12T06:51:09.211Z,66.54
2019-05-12T06:54:15.225Z,67.06
2019-05-12T06:57:25.347Z,61.97
2019-05-12T07:00:30.919Z,65.75
2019-05-12T07:03:37.148Z,65.20
2019-05-12T07:06:41.065Z,64.39
2019-05-12T07:09:53.772Z,65.28
2019-05-12T07:13:01.678Z,68.26
2019-05-12T07:16:19.227Z,67.43
2019-05-12T07:19:22.644Z,67.29
2019-05-12T07:22:31.844Z,66.59
2019-05-12T07:25:36.868Z,65.06
2019-05-12T07:28:43.240Z,62.78
2019-05-12T07:31:48.032Z,61.24
2019-05-12T07:34:54.416Z,65.90
2019-05-12T07:37:59.776Z,67.08
2019-05-12T07:41:06.800Z,61.64
2019-05-12T07:44:14.362Z,67.28
2019-05-12T07:47:25.293Z,69.72
2019-05-12T07:50:27.885Z,70.54
2019-05-12T07:53:33.867Z,66.66
2019-05-12T07:56:41.037Z,66.95
2019-05-12T07:59:45.979Z,67.41
2019-05-12T08:02:51.146Z,66.98
2019-05-12T08:06:00.029Z,62.06
2019-05-12T08:09:05.832Z,62.58
2019-05-12T08:12:19.084Z,60.92
2019-05-12T08:15:17.895Z,60.94
2019-05-12T08:18:24.629Z,63.61
2019-05-12T08:21:34.794Z,62.74
2019-05-12T08:24:42.833Z,62.78
2019-05-12T08:27:45.239Z,61.38
2019-05-12T08:30:52.155Z,60.59
2019-05-12T08:33:57.902Z,61.55
2019-05-12T08:37:04.365Z,61.86
2019-05-12T08:40:09.755Z,60.70
2019-05-12T08:43:15.099Z,57.91
2019-05-12T08:46:20.276Z,60.59
2019-05-12T08:49:25.455Z,61.26
2019-05-12T08:52:36.314Z,58.88
2019-05-12T08:55:37.670Z,59.84
2019-05-12T08:58:48.253Z,61.17
2019-05-12T09:01:49.792Z,60.71
2019-05-12T09:04:55.721Z,61.33
2019-05-12T09:08:03.640Z,61.42
2019-05-12T09:11:09.617Z,60.45
2019-05-12T09:14:14.803Z,57.86
2019-05-12T09:17:19.935Z,56.49
2019-05-12T09:20:25.088Z,62.33
2019-05-12T09:23:32.785Z,64.19
2019-05-12T09:26:37.118Z,61.79
2019-05-12T09:29:43.589Z,60.72
2019-05-12T09:32:50.408Z,60.43
2019-05-12T09:35:55.911Z,58.64
2019-05-12T09:39:02.075Z,57.98
2019-05-12T09:42:07.962Z,56.40
2019-05-12T09:45:13.772Z,56.31
2019-05-12T09:48:19.235Z,57.18
2019-05-12T09:51:24.407Z,55.79
2019-05-12T09:54:40.296Z,57.04
2019-05-12T09:57:40.577Z,56.70
2019-05-12T10:00:43.623Z,55.92
2019-05-12T10:03:49.063Z,54.04
2019-05-12T10:06:54.322Z,55.78
2019-05-12T10:10:00.556Z,54.70
2019-05-12T10:13:05.760Z,53.35
2019-05-12T10:16:13.296Z,53.42
2019-05-12T10:19:17.816Z,54.61
2019-05-12T10:22:24.628Z,54.84
2019-05-12T10:25:30.744Z,55.12
2019-05-12T10:28:36.121Z,53.81
2019-05-12T10:31:41.278Z,53.09
2019-05-12T10:34:46.457Z,52.52
2019-05-12T10:37:53.649Z,50.80
2019-05-12T10:40:58.527Z,51.91
2019-05-12T10:44:04.104Z,52.32
2019-05-12T10:47:09.359Z,51.68
2019-05-12T10:50:14.861Z,50.70
2019-05-12T10:53:19.998Z,50.71
2019-05-12T10:56:25.167Z,52.19
2019-05-12T10:59:33.387Z,49.93
2019-05-12T11:02:37.371Z,50.92
2019-05-12T11:05:44.054Z,55.49
2019-05-12T11:08:51.204Z,56.36
2019-05-12T11:11:57.823Z,51.51
2019-05-12T11:15:06.715Z,50.75
2019-05-12T11:18:20.513Z,50.03
2019-05-12T11:21:23.226Z,47.36
2019-05-12T11:24:28.364Z,48.37
2019-05-12T11:27:34.559Z,45.59
2019-05-12T11:30:39.813Z,46.47
2019-05-12T11:33:44.958Z,48.98
2019-05-12T11:36:50.492Z,54.18
2019-05-12T11:39:55.623Z,53.35
2019-05-12T11:43:01.756Z,52.35
2019-05-12T11:46:08.419Z,52.99
2019-05-12T11:49:14.607Z,55.75
2019-05-12T11:52:19.768Z,57.99
2019-05-12T11:55:29.785Z,60.32
2019-05-12T11:58:33.500Z,59.01
2019-05-12T12:01:39.676Z,60.89
2019-05-12T12:04:46.034Z,56.67
2019-05-12T12:07:52.940Z,56.41
2019-05-12T12:10:58.106Z,57.12
2019-05-12T12:14:06.374Z,51.76
2019-05-12T12:17:10.164Z,51.94
2019-05-12T12:20:22.246Z,53.33
2019-05-12T12:23:24.358Z,51.35
2019-05-12T12:26:30.612Z,49.14
2019-05-12T12:29:39.108Z,49.91
2019-05-12T12:32:44.415Z,52.90
2019-05-12T12:35:50.498Z,55.95
2019-05-12T12:38:56.462Z,56.45
2019-05-12T12:42:01.688Z,58.60
2019-05-12T12:45:44.385Z,58.17
2019-05-12T12:48:49.534Z,57.07
2019-05-12T12:51:54.698Z,56.69
2019-05-12T12:55:08.309Z,55.17
2019-05-12T12:58:13.954Z,56.05
2019-05-12T13:01:26.737Z,55.04
2019-05-12T13:04:28.520Z,56.29
2019-05-12T13:07:33.728Z,55.59
2019-05-12T13:10:40.550Z,51.06
2019-05-12T13:13:45.825Z,53.83
2019-05-12T13:16:54.704Z,54.21
2019-05-12T13:19:58.863Z,54.83
2019-05-12T13:23:04.285Z,54.04
2019-05-12T13:26:09.527Z,53.11
2019-05-12T13:29:14.758Z,51.41
2019-05-12T13:32:23.626Z,50.48
2019-05-12T13:35:26.840Z,50.89
2019-05-12T13:38:38.294Z,52.16
2019-05-12T13:41:39.082Z,48.84
2019-05-12T13:44:44.298Z,50.61
2019-05-12T13:47:49.490Z,50.16
2019-05-12T13:51:07.719Z,46.59
2019-05-12T13:54:03.733Z,46.33
2019-05-12T13:57:11.782Z,45.86
2019-05-12T14:00:15.733Z,45.78
2019-05-12T14:03:20.995Z,47.91
2019-05-12T14:06:32.207Z,46.93
2019-05-12T14:09:35.755Z,51.52
2019-05-12T14:12:43.954Z,53.90
2019-05-12T14:15:49.693Z,55.02
2019-05-12T14:18:57.121Z,56.32
2019-05-12T14:22:03.540Z,55.15
2019-05-12T14:25:09.368Z,57.23
2019-05-12T14:28:16.725Z,54.86
2019-05-12T14:31:27.498Z,52.54
2019-05-12T14:34:28.530Z,48.20
2019-05-12T14:37:33.795Z,48.71
2019-05-12T14:40:38.974Z,47.60
2019-05-12T14:43:47.642Z,50.49
2019-05-12T14:46:53.786Z,52.98
2019-05-12T14:49:59.273Z,53.58
2019-05-12T14:53:04.448Z,51.22
2019-05-12T14:56:09.663Z,49.68
2019-05-12T14:59:17.017Z,48.61
2019-05-12T15:02:27.703Z,46.91
2019-05-12T15:05:29.209Z,43.79
2019-05-12T15:08:37.177Z,44.75
2019-05-12T15:11:43.563Z,44.95
2019-05-12T15:14:48.120Z,45.57
2019-05-12T15:17:56.678Z,47.20
2019-05-12T15:21:03.428Z,47.12
2019-05-12T15:24:09.298Z,50.03
2019-05-12T15:27:15.064Z,51.77
2019-05-12T15:30:24.482Z,52.19
2019-05-12T15:33:28.035Z,52.70
2019-05-12T15:36:33.649Z,52.84
2019-05-12T15:39:38.887Z,53.49
2019-05-12T15:42:45.246Z,52.48
2019-05-12T15:45:55.305Z,51.35
2019-05-12T15:48:57.639Z,50.03
2019-05-12T15:52:03.512Z,47.39
2019-05-12T15:55:09.545Z,47.39
2019-05-12T15:58:14.772Z,48.80
2019-05-12T16:01:20.098Z,47.87
2019-05-12T16:04:26.418Z,47.17
2019-05-12T16:07:37.840Z,45.20
2019-05-12T16:10:40.773Z,46.30
2019-05-12T16:13:53.717Z,47.46
2019-05-12T16:16:53.548Z,49.77
2019-05-12T16:19:58.993Z,49.01
2019-05-12T16:23:04.269Z,50.16
2019-05-12T16:26:12.562Z,50.69
2019-05-12T16:29:16.360Z,49.13
2019-05-12T16:32:27.076Z,48.86
2019-05-12T16:35:31.743Z,49.19
2019-05-12T16:38:36.205Z,51.28
2019-05-12T16:41:43.739Z,52.09
2019-05-12T16:44:48.294Z,51.17
2019-05-12T16:47:59.354Z,51.97
2019-05-12T16:51:03.288Z,51.00
2019-05-12T16:54:08.214Z,52.41
2019-05-12T16:57:17.948Z,53.25
2019-05-12T17:00:20.827Z,52.09
2019-05-12T17:03:27.206Z,51.34
2019-05-12T17:06:35.012Z,50.84
2019-05-12T17:09:39.564Z,49.81
2019-05-12T17:12:48.112Z,51.21
2019-05-12T17:15:59.841Z,50.61
2019-05-12T17:19:06.250Z,46.91
2019-05-12T17:22:08.525Z,47.34
2019-05-12T17:25:15.481Z,46.73
2019-05-12T17:28:21.036Z,45.62
2019-05-12T17:31:27.580Z,45.98
2019-05-12T17:34:33.955Z,45.76
2019-05-12T17:37:41.403Z,47.27
2019-05-12T17:40:50.230Z,45.79
2019-05-12T17:44:00.891Z,47.59
2019-05-12T17:47:00.211Z,46.95
2019-05-12T17:50:10.294Z,48.57
2019-05-12T17:53:17.696Z,47.34
2019-05-12T17:56:25.076Z,46.28
2019-05-12T17:59:29.482Z,46.48
2019-05-12T18:02:34.860Z,46.68
2019-05-12T18:05:42.467Z,47.38
2019-05-12T18:08:46.867Z,46.82
2019-05-12T18:11:56.127Z,47.02
2019-05-12T18:14:58.947Z,45.04
2019-05-12T18:18:05.647Z,46.56
2019-05-12T18:21:14.832Z,47.91
2019-05-12T18:24:17.856Z,48.87
2019-05-12T18:27:23.010Z,50.22
2019-05-12T18:30:28.303Z,52.04
2019-05-12T18:33:37.180Z,52.22
2019-05-12T18:36:40.443Z,52.80
2019-05-12T18:39:45.627Z,53.42
2019-05-12T18:42:50.770Z,54.70
2019-05-12T18:46:04.837Z,55.02
2019-05-12T18:49:11.965Z,55.21
2019-05-12T18:52:11.447Z,55.86
2019-05-12T18:55:17.727Z,56.15
2019-05-12T18:58:30.613Z,55.50
2019-05-12T19:01:33.416Z,55.80
2019-05-12T19:04:39.718Z,56.73
2019-05-12T19:07:45.185Z,56.58
2019-05-12T19:10:51.936Z,56.85
2019-05-12T19:13:58.936Z,57.58
2019-05-12T19:17:04.315Z,57.62
2019-05-12T19:20:09.779Z,58.31
2019-05-12T19:23:15.322Z,59.51
2019-05-12T19:26:20.579Z,60.97
2019-05-12T19:29:29.768Z,61.10
2019-05-12T19:32:33.616Z,61.72
2019-05-12T19:35:39.651Z,62.20
2019-05-12T19:38:44.851Z,60.25
2019-05-12T19:41:50.101Z,60.60
2019-05-12T19:44:59.319Z,59.40
2019-05-12T19:48:04.070Z,59.72
2019-05-12T19:51:20.868Z,59.35
2019-05-12T19:54:19.350Z,59.91
2019-05-12T19:57:26.117Z,60.74
2019-05-12T20:00:29.705Z,62.08
2019-05-12T20:03:34.927Z,61.96
2019-05-12T20:06:43.981Z,63.24
2019-05-12T20:09:55.897Z,62.27
2019-05-12T20:12:57.149Z,63.39
2019-05-12T20:16:02.405Z,66.47
2019-05-12T20:19:08.442Z,64.47
2019-05-12T20:22:13.910Z,65.21
2019-05-12T20:25:19.194Z,67.02
2019-05-12T20:28:24.541Z,67.38
2019-05-12T20:31:29.897Z,68.25
2019-05-12T20:34:48.430Z,69.73
2019-05-12T20:37:52.735Z,69.95
2019-05-12T20:40:50.465Z,73.42
2019-05-12T20:43:55.666Z,71.63
2019-05-12T20:47:06.414Z,72.65
2019-05-12T20:50:10.699Z,72.49
2019-05-12T20:53:16.102Z,74.76
2019-05-12T20:56:24.375Z,75.89
2019-05-12T20:59:28.479Z,76.88
2019-05-12T21:02:33.886Z,78.82
2019-05-12T21:05:40.260Z,81.44
2019-05-12T21:08:53.120Z,83.03
2019-05-12T21:11:54.763Z,84.46
2019-05-12T21:15:13.711Z,86.13
2019-05-12T21:18:11.171Z,86.89
2019-05-12T21:21:16.462Z,88.40
2019-05-12T21:24:24.295Z,89.01
2019-05-12T21:27:28.738Z,90.85
2019-05-12T21:30:34.015Z,91.21
2019-05-12T21:33:41.594Z,92.06
2019-05-12T21:36:46.135Z,92.60
2019-05-12T21:39:51.262Z,92.67
2019-05-12T21:42:56.382Z,92.85
2019-05-12T21:46:10.171Z,94.32
2019-05-12T21:49:11.893Z,93.67
2019-05-12T21:52:15.306Z,95.72
2019-05-12T21:55:24.057Z,95.35
2019-05-12T21:58:29.646Z,96.46
2019-05-12T22:01:43.480Z,97.40
2019-05-12T22:04:45.018Z,98.29
2019-05-12T22:07:49.261Z,99.50
2019-05-12T22:10:54.632Z,99.14
2019-05-12T22:14:00.368Z,99.87
2019-05-12T22:17:07.321Z,102.68
2019-05-12T22:20:15.455Z,102.65
2019-05-12T22:23:19.410Z,102.14
2019-05-12T22:26:24.565Z,103.77
2019-05-12T22:29:31.384Z,105.48
2019-05-12T22:32:36.560Z,104.61
2019-05-12T22:35:44.130Z,104.84
2019-05-12T22:38:52.042Z,104.74
2019-05-12T22:41:55.528Z,105.73
2019-05-12T22:45:01.842Z,106.16
2019-05-12T22:48:07.582Z,106.82
2019-05-12T22:51:18.716Z,106.68
2019-05-12T22:54:19.726Z,107.18
2019-05-12T22:57:29.177Z,108.58
2019-05-12T23:00:34.203Z,107.33
2019-05-12T23:03:43.200Z,108.63
2019-05-12T23:06:46.837Z,108.89
2019-05-12T23:09:54.458Z,109.54
2019-05-12T23:13:01.934Z,110.27
2019-05-12T23:16:06.432Z,110.48
2019-05-12T23:19:12.389Z,110.56
2019-05-12T23:22:18.457Z,111.31
2019-05-12T23:25:24.433Z,111.70
2019-05-12T23:28:29.831Z,111.54
2019-05-12T23:31:35.048Z,112.08
2019-05-12T23:34:45.003Z,112.89
2019-05-12T23:37:47.068Z,113.33
2019-05-12T23:40:53.759Z,113.57
2019-05-12T23:44:00.746Z,114.15
2019-05-12T23:47:05.881Z,114.60
2019-05-12T23:50:13.896Z,114.38
2019-05-12T23:53:18.052Z,115.38
2019-05-12T23:56:23.314Z,114.42
2019-05-12T23:59:28.461Z,114.25
